createdAt,value
2019-01-06T00:00:11.209Z,3.60
2019-01-06T00:02:51.383Z,3.50
2019-01-06T00:05:45.912Z,3.40
2019-01-06T00:08:29.412Z,3.50
2019-01-06T00:11:36.060Z,3.20
2019-01-06T00:14:25.561Z,3.20
2019-01-06T00:17:16.452Z,3.20
2019-01-06T00:20:16.300Z,3.30
2019-01-06T00:22:56.453Z,3.30
2019-01-06T00:25:43.910Z,3.20
2019-01-06T00:28:44.327Z,3.10
2019-01-06T00:31:23.563Z,3.10
2019-01-06T00:34:21.620Z,3.10
2019-01-06T00:37:07.107Z,3.10
2019-01-06T00:39:54.107Z,3.10
2019-01-06T00:42:45.601Z,3.20
2019-01-06T00:45:52.623Z,3.20
2019-01-06T00:48:37.272Z,3.10
2019-01-06T00:51:26.253Z,3.10
2019-01-06T00:54:13.144Z,3.00
2019-01-06T00:57:00.522Z,2.90
2019-01-06T00:59:42.401Z,2.80
2019-01-06T01:02:42.509Z,2.90
2019-01-06T01:05:31.681Z,2.90
2019-01-06T01:08:19.501Z,2.90
2019-01-06T01:11:13.584Z,2.80
2019-01-06T01:14:00.713Z,2.90
2019-01-06T01:16:48.098Z,2.80
2019-01-06T01:19:35.097Z,2.80
2019-01-06T01:22:21.941Z,2.80
2019-01-06T01:25:08.933Z,2.90
2019-01-06T01:27:56.107Z,2.80
2019-01-06T01:30:42.978Z,2.80
2019-01-06T01:33:21.855Z,2.80
2019-01-06T01:36:08.613Z,2.80
2019-01-06T01:38:55.724Z,2.80
2019-01-06T01:41:37.484Z,2.80
2019-01-06T01:44:23.344Z,2.80
2019-01-06T01:47:03.827Z,2.80
2019-01-06T01:49:46.112Z,2.90
2019-01-06T01:52:37.359Z,2.90
2019-01-06T01:55:37.760Z,3.10
2019-01-06T01:58:29.111Z,2.90
2019-01-06T02:01:23.263Z,2.80
2019-01-06T02:04:10.278Z,3.00
2019-01-06T02:06:50.124Z,3.00
2019-01-06T02:09:50.660Z,2.90
2019-01-06T02:12:39.928Z,2.90
2019-01-06T02:15:18.273Z,2.80
2019-01-06T02:18:05.093Z,2.70
2019-01-06T02:20:56.272Z,2.70
2019-01-06T02:23:43.226Z,2.80
2019-01-06T02:26:30.483Z,2.70
2019-01-06T02:29:26.536Z,2.70
2019-01-06T02:32:15.013Z,2.70
2019-01-06T02:35:03.229Z,2.80
2019-01-06T02:37:49.359Z,2.80
2019-01-06T02:40:36.658Z,2.80
2019-01-06T02:43:23.865Z,2.70
2019-01-06T02:46:27.415Z,2.70
2019-01-06T02:49:14.462Z,2.70
2019-01-06T02:52:01.496Z,2.80
2019-01-06T02:55:04.788Z,2.80
2019-01-06T02:57:51.656Z,2.80
2019-01-06T03:00:49.122Z,2.80
2019-01-06T03:03:36.052Z,2.80
2019-01-06T03:06:27.435Z,2.80
2019-01-06T03:09:25.104Z,2.80
2019-01-06T03:12:11.516Z,2.90
2019-01-06T03:15:14.839Z,2.80
2019-01-06T03:17:58.869Z,2.80
2019-01-06T03:21:01.015Z,2.80
2019-01-06T03:23:57.377Z,3.00
2019-01-06T03:27:03.908Z,2.90
2019-01-06T03:29:58.165Z,2.80
2019-01-06T03:32:45.142Z,2.80
2019-01-06T03:35:34.926Z,2.80
2019-01-06T03:38:38.494Z,2.80
2019-01-06T03:41:25.470Z,2.80
2019-01-06T03:44:12.432Z,2.90
2019-01-06T03:46:59.661Z,2.90
2019-01-06T03:50:06.353Z,2.90
2019-01-06T03:52:48.468Z,2.80
2019-01-06T03:55:57.304Z,2.80
2019-01-06T03:58:54.649Z,2.80
2019-01-06T04:01:41.853Z,2.80
2019-01-06T04:04:32.889Z,2.80
2019-01-06T04:07:39.721Z,2.70
2019-01-06T04:10:26.618Z,2.70
2019-01-06T04:13:16.124Z,2.70
2019-01-06T04:16:19.861Z,2.60
2019-01-06T04:19:06.962Z,2.70
2019-01-06T04:21:55.268Z,2.80
2019-01-06T04:24:43.940Z,2.90
2019-01-06T04:27:31.185Z,2.90
2019-01-06T04:30:14.509Z,2.80
2019-01-06T04:33:01.760Z,2.80
2019-01-06T04:35:48.250Z,2.90
2019-01-06T04:38:35.622Z,2.90
2019-01-06T04:41:22.723Z,2.80
2019-01-06T04:44:10.963Z,2.80
2019-01-06T04:47:10.538Z,2.70
2019-01-06T04:49:57.755Z,2.80
2019-01-06T04:52:42.740Z,2.80
2019-01-06T04:55:20.868Z,2.70
2019-01-06T04:58:13.599Z,2.70
2019-01-06T05:01:04.811Z,2.70
2019-01-06T05:04:11.723Z,2.70
2019-01-06T05:06:57.922Z,2.70
2019-01-06T05:09:45.035Z,2.70
2019-01-06T05:12:42.144Z,2.80
2019-01-06T05:15:23.639Z,2.80
2019-01-06T05:18:10.763Z,2.70
2019-01-06T05:20:59.025Z,2.70
2019-01-06T05:23:46.172Z,2.70
2019-01-06T05:26:34.419Z,2.80
2019-01-06T05:29:21.321Z,2.90
2019-01-06T05:32:08.394Z,3.00
2019-01-06T05:34:49.819Z,2.90
2019-01-06T05:37:35.382Z,2.90
2019-01-06T05:40:22.484Z,2.90
2019-01-06T05:43:11.262Z,2.90
2019-01-06T05:45:59.536Z,2.90
2019-01-06T05:48:46.407Z,2.90
2019-01-06T05:51:50.016Z,2.90
2019-01-06T05:54:37.014Z,2.90
2019-01-06T05:57:20.615Z,3.00
2019-01-06T06:00:08.536Z,2.90
2019-01-06T06:02:45.520Z,2.80
2019-01-06T06:05:25.139Z,2.80
2019-01-06T06:08:09.937Z,2.80
2019-01-06T06:10:55.395Z,2.80
2019-01-06T06:13:55.892Z,2.80
2019-01-06T06:16:38.432Z,2.70
2019-01-06T06:19:23.848Z,2.70
2019-01-06T06:22:12.046Z,2.60
2019-01-06T06:24:59.027Z,2.60
2019-01-06T06:27:50.471Z,2.80
2019-01-06T06:30:39.875Z,2.80
2019-01-06T06:33:27.161Z,2.70
2019-01-06T06:36:18.452Z,2.70
2019-01-06T06:39:13.062Z,2.80
2019-01-06T06:42:04.148Z,2.80
2019-01-06T06:44:51.013Z,2.70
2019-01-06T06:47:36.837Z,2.70
2019-01-06T06:50:23.998Z,2.70
2019-01-06T06:53:10.992Z,2.70
2019-01-06T06:56:14.365Z,2.70
2019-01-06T06:59:13.080Z,2.70
2019-01-06T07:03:13.026Z,2.70
2019-01-06T07:06:03.652Z,2.80
2019-01-06T07:08:53.761Z,2.70
2019-01-06T07:11:40.652Z,2.70
2019-01-06T07:14:36.499Z,2.70
2019-01-06T07:17:59.480Z,2.70
2019-01-06T07:21:00.816Z,2.70
2019-01-06T07:23:58.005Z,2.70
2019-01-06T07:26:45.140Z,2.70
2019-01-06T07:29:36.447Z,2.70
2019-01-06T07:32:23.629Z,2.80
2019-01-06T07:35:11.024Z,2.80
2019-01-06T07:38:02.095Z,2.80
2019-01-06T07:40:49.024Z,2.80
2019-01-06T07:43:37.208Z,2.70
2019-01-06T07:46:24.088Z,2.70
2019-01-06T07:53:00.693Z,2.80
2019-01-06T07:55:58.621Z,2.70
2019-01-06T07:58:48.961Z,2.60
2019-01-06T08:01:39.924Z,2.70
2019-01-06T08:04:25.239Z,2.60
2019-01-06T08:07:16.668Z,2.60
2019-01-06T08:10:14.247Z,2.60
2019-01-06T08:13:01.386Z,2.70
2019-01-06T08:16:01.349Z,4.00
2019-01-06T08:18:55.702Z,4.90
2019-01-06T08:21:43.747Z,5.60
2019-01-06T08:24:31.603Z,5.50
2019-01-06T08:27:30.221Z,4.90
2019-01-06T08:30:30.858Z,4.20
2019-01-06T08:33:18.211Z,3.70
2019-01-06T08:36:06.484Z,3.50
2019-01-06T08:38:53.842Z,3.40
2019-01-06T08:41:38.098Z,3.30
2019-01-06T08:44:21.311Z,3.20
2019-01-06T08:47:08.373Z,3.30
2019-01-06T08:49:54.441Z,3.20
2019-01-06T08:52:42.151Z,3.00
2019-01-06T08:55:29.182Z,3.00
2019-01-06T08:58:29.596Z,3.20
2019-01-06T09:01:16.466Z,3.10
2019-01-06T09:04:13.914Z,3.00
2019-01-06T09:07:00.875Z,3.00
2019-01-06T09:09:47.204Z,3.00
2019-01-06T09:12:34.374Z,3.00
2019-01-06T09:15:23.633Z,2.90
2019-01-06T09:18:15.077Z,2.90
2019-01-06T09:21:09.225Z,3.00
2019-01-06T09:23:57.612Z,2.90
2019-01-06T09:26:45.342Z,2.80
2019-01-06T09:29:39.745Z,2.80
2019-01-06T09:32:26.826Z,2.90
2019-01-06T09:35:13.415Z,2.80
2019-01-06T09:38:02.036Z,2.90
2019-01-06T09:40:50.438Z,3.00
2019-01-06T09:43:37.405Z,2.90
2019-01-06T09:46:44.380Z,2.90
2019-01-06T09:49:32.500Z,2.90
2019-01-06T09:52:24.005Z,2.70
2019-01-06T09:55:08.090Z,2.80
2019-01-06T09:57:56.450Z,2.80
2019-01-06T10:00:43.930Z,2.80
2019-01-06T10:03:36.949Z,2.70
2019-01-06T10:06:28.750Z,2.70
2019-01-06T10:09:16.030Z,2.70
2019-01-06T10:11:57.058Z,2.70
2019-01-06T10:15:07.008Z,2.70
2019-01-06T10:17:54.457Z,2.80
2019-01-06T10:20:52.089Z,2.90
2019-01-06T10:23:39.194Z,2.90
2019-01-06T10:26:27.602Z,2.80
2019-01-06T10:29:14.501Z,2.80
2019-01-06T10:32:02.899Z,2.80
2019-01-06T10:34:47.311Z,2.90
2019-01-06T10:37:29.210Z,2.90
2019-01-06T10:40:13.785Z,3.00
2019-01-06T10:43:17.408Z,2.90
2019-01-06T10:46:17.827Z,2.80
2019-01-06T10:49:19.118Z,2.70
2019-01-06T10:52:13.256Z,2.80
2019-01-06T10:55:06.627Z,2.80
2019-01-06T10:57:57.727Z,2.80
2019-01-06T11:00:49.265Z,2.80
2019-01-06T11:03:36.525Z,2.70
2019-01-06T11:06:24.316Z,2.70
2019-01-06T11:09:11.606Z,2.60
2019-01-06T11:12:15.463Z,2.80
2019-01-06T11:15:06.877Z,2.80
2019-01-06T11:17:57.405Z,2.70
2019-01-06T11:20:35.844Z,2.70
2019-01-06T11:23:23.618Z,2.80
2019-01-06T11:26:21.348Z,2.70
2019-01-06T11:29:21.144Z,2.70
2019-01-06T11:32:08.407Z,2.60
2019-01-06T11:35:23.633Z,2.70
2019-01-06T11:39:04.668Z,2.60
2019-01-06T11:42:12.600Z,2.60
2019-01-06T11:45:13.616Z,2.60
2019-01-06T11:48:15.160Z,2.60
2019-01-06T12:01:12.551Z,2.80
2019-01-06T12:01:32.885Z,2.70
2019-01-06T12:04:55.431Z,2.90
2019-01-06T12:08:19.301Z,2.90
2019-01-06T12:11:19.953Z,3.00
2019-01-06T12:14:17.690Z,2.90
2019-01-06T12:17:12.486Z,3.00
2019-01-06T12:20:02.021Z,2.80
2019-01-06T12:22:48.169Z,2.80
2019-01-06T12:25:37.667Z,2.80
2019-01-06T12:28:32.334Z,2.90
2019-01-06T12:31:19.285Z,2.80
2019-01-06T12:34:05.662Z,2.90
2019-01-06T12:36:54.151Z,2.90
2019-01-06T12:39:40.370Z,2.90
2019-01-06T12:42:40.699Z,3.00
2019-01-06T12:45:38.434Z,3.00
2019-01-06T12:48:24.170Z,3.10
2019-01-06T12:51:13.682Z,3.10
2019-01-06T12:54:00.829Z,3.10
2019-01-06T12:56:45.532Z,3.10
2019-01-06T12:59:31.924Z,3.20
2019-01-06T13:02:15.265Z,3.20
2019-01-06T13:05:03.624Z,3.20
2019-01-06T13:07:50.989Z,3.20
2019-01-06T13:10:32.575Z,3.20
2019-01-06T13:13:39.051Z,3.20
2019-01-06T13:16:26.167Z,3.20
2019-01-06T13:19:14.364Z,3.20
2019-01-06T13:22:03.068Z,3.20
2019-01-06T13:24:49.531Z,3.10
2019-01-06T13:27:49.859Z,3.20
2019-01-06T13:30:31.561Z,3.10
2019-01-06T13:33:38.199Z,3.10
2019-01-06T13:36:40.297Z,3.10
2019-01-06T13:39:39.129Z,3.10
2019-01-06T13:42:28.800Z,3.10
2019-01-06T13:45:14.592Z,3.10
2019-01-06T13:48:02.934Z,3.10
2019-01-06T13:50:51.220Z,3.10
2019-01-06T13:54:00.140Z,3.10
2019-01-06T13:57:04.274Z,3.00
2019-01-06T14:00:10.886Z,3.00
2019-01-06T14:03:06.916Z,2.90
2019-01-06T14:06:07.690Z,2.90
2019-01-06T14:08:54.814Z,2.80
2019-01-06T14:11:33.022Z,2.80
2019-01-06T14:14:20.300Z,2.80
2019-01-06T14:17:07.559Z,2.90
2019-01-06T14:19:53.972Z,2.80
2019-01-06T14:22:40.341Z,2.80
2019-01-06T14:25:24.098Z,2.80
2019-01-06T14:28:17.648Z,2.80
2019-01-06T14:31:04.917Z,2.70
2019-01-06T14:33:52.117Z,2.70
2019-01-06T14:36:55.849Z,2.70
2019-01-06T14:39:42.456Z,2.70
2019-01-06T14:42:29.461Z,2.70
2019-01-06T14:45:22.494Z,2.60
2019-01-06T14:48:09.688Z,2.70
2019-01-06T14:50:59.070Z,2.70
2019-01-06T14:53:46.220Z,2.80
2019-01-06T14:56:45.328Z,2.70
2019-01-06T14:59:39.357Z,2.60
2019-01-06T15:02:36.871Z,2.70
2019-01-06T15:05:28.273Z,2.70
2019-01-06T15:08:15.711Z,2.70
2019-01-06T15:11:13.388Z,2.80
2019-01-06T15:14:16.795Z,2.70
2019-01-06T15:16:57.881Z,2.70
2019-01-06T15:19:44.889Z,2.70
2019-01-06T15:22:36.038Z,2.70
2019-01-06T15:25:17.749Z,2.70
2019-01-06T15:27:57.939Z,2.70
2019-01-06T15:30:52.486Z,2.70
2019-01-06T15:33:36.884Z,2.70
2019-01-06T15:36:25.171Z,2.80
2019-01-06T15:39:16.282Z,2.70
2019-01-06T15:42:04.435Z,2.70
2019-01-06T15:48:45.191Z,2.80
2019-01-06T15:51:44.624Z,2.90
2019-01-06T15:54:27.389Z,2.80
2019-01-06T15:57:14.483Z,2.80
2019-01-06T15:59:58.158Z,2.80
2019-01-06T16:02:48.134Z,2.80
2019-01-06T16:05:51.723Z,2.80
2019-01-06T16:08:32.506Z,2.90
2019-01-06T16:11:29.669Z,2.90
2019-01-06T16:14:10.975Z,2.90
2019-01-06T16:16:57.265Z,2.90
2019-01-06T16:19:55.437Z,3.00
2019-01-06T16:23:05.539Z,3.00
2019-01-06T16:26:04.612Z,3.00
2019-01-06T16:28:59.392Z,3.00
2019-01-06T16:32:15.034Z,3.00
2019-01-06T16:35:05.666Z,3.10
2019-01-06T16:38:00.004Z,3.10
2019-01-06T16:40:38.977Z,3.10
2019-01-06T16:43:36.458Z,3.00
2019-01-06T16:46:29.496Z,3.00
2019-01-06T16:49:24.131Z,3.00
2019-01-06T16:52:21.609Z,3.00
2019-01-06T16:55:08.821Z,3.40
2019-01-06T16:58:12.504Z,3.30
2019-01-06T17:01:40.712Z,3.20
2019-01-06T17:15:13.967Z,3.10
2019-01-06T17:17:54.599Z,3.00
2019-01-06T17:21:35.350Z,3.10
2019-01-06T17:24:25.138Z,3.10
2019-01-06T17:27:13.430Z,3.10
2019-01-06T17:30:05.171Z,3.00
2019-01-06T17:33:30.097Z,3.00
2019-01-06T17:36:27.637Z,3.10
2019-01-06T17:39:18.565Z,3.10
2019-01-06T17:42:07.141Z,3.10
2019-01-06T17:45:08.865Z,3.20
2019-01-06T17:47:56.684Z,3.20
2019-01-06T17:50:57.059Z,3.20
2019-01-06T17:53:44.112Z,3.20
2019-01-06T17:56:32.327Z,3.20
2019-01-06T17:59:19.442Z,3.20
2019-01-06T18:02:26.112Z,3.20
2019-01-06T18:05:30.183Z,3.20
2019-01-06T18:08:22.716Z,3.20
2019-01-06T18:11:27.336Z,3.20
2019-01-06T18:14:22.168Z,3.20
2019-01-06T18:17:09.476Z,3.20
2019-01-06T18:20:03.852Z,3.30
2019-01-06T18:22:53.908Z,3.30
2019-01-06T18:25:42.118Z,3.30
2019-01-06T18:28:32.032Z,3.30
2019-01-06T18:31:19.321Z,3.30
2019-01-06T18:34:11.238Z,3.20
2019-01-06T18:36:58.224Z,3.30
2019-01-06T18:39:54.583Z,3.30
2019-01-06T18:42:45.225Z,3.20
2019-01-06T18:45:34.649Z,3.20
2019-01-06T18:48:26.681Z,3.20
2019-01-06T18:51:13.916Z,3.20
2019-01-06T18:54:07.952Z,3.10
2019-01-06T18:56:59.104Z,3.00
2019-01-06T18:59:49.984Z,3.00
2019-01-06T19:02:37.564Z,3.00
2019-01-06T19:05:30.305Z,3.00
2019-01-06T19:08:24.165Z,3.00
2019-01-06T19:11:23.328Z,3.00
2019-01-06T19:14:10.356Z,3.10
2019-01-06T19:17:05.820Z,3.10
2019-01-06T19:19:52.798Z,3.20
2019-01-06T19:22:40.329Z,3.20
2019-01-06T19:25:46.845Z,3.30
2019-01-06T19:28:41.028Z,3.20
2019-01-06T19:31:31.853Z,3.20
2019-01-06T19:34:21.917Z,3.20
2019-01-06T19:37:19.283Z,3.20
2019-01-06T19:40:06.293Z,3.20
2019-01-06T19:42:53.453Z,3.20
2019-01-06T19:45:41.748Z,3.20
2019-01-06T19:48:28.623Z,3.20
2019-01-06T19:51:11.627Z,3.20
2019-01-06T19:53:58.622Z,3.20
2019-01-06T19:56:53.117Z,3.10
2019-01-06T19:59:40.058Z,3.20
2019-01-06T20:02:21.290Z,3.20
2019-01-06T20:05:09.635Z,3.20
2019-01-06T20:08:03.653Z,3.20
2019-01-06T20:11:02.462Z,3.20
2019-01-06T20:13:49.732Z,3.20
2019-01-06T20:16:32.811Z,3.20
2019-01-06T20:19:34.739Z,3.10
2019-01-06T20:22:26.938Z,3.10
2019-01-06T20:25:08.896Z,3.20
2019-01-06T20:27:56.135Z,3.10
2019-01-06T20:30:44.357Z,3.10
2019-01-06T20:33:31.543Z,3.10
2019-01-06T20:36:29.531Z,3.20
2019-01-06T20:39:16.585Z,3.20
2019-01-06T20:42:07.881Z,3.20
2019-01-06T20:44:54.844Z,3.20
2019-01-06T20:47:52.389Z,3.20
2019-01-06T20:50:45.350Z,3.20
2019-01-06T20:53:39.721Z,3.20
2019-01-06T20:56:26.518Z,3.20
2019-01-06T20:59:13.593Z,3.20
2019-01-06T21:02:08.986Z,3.20
2019-01-06T21:05:04.555Z,3.20
2019-01-06T21:07:56.151Z,3.20
2019-01-06T21:10:54.462Z,3.20
2019-01-06T21:13:41.588Z,3.20
2019-01-06T21:16:34.761Z,3.10
2019-01-06T21:19:23.072Z,3.10
2019-01-06T21:22:26.396Z,3.20
2019-01-06T21:25:20.621Z,3.10
2019-01-06T21:28:11.692Z,3.10
2019-01-06T21:30:58.701Z,3.10
2019-01-06T21:33:45.955Z,3.10
2019-01-06T21:36:40.186Z,3.10
2019-01-06T21:39:31.553Z,3.10
2019-01-06T21:42:27.536Z,3.10
2019-01-06T21:45:41.232Z,3.10
2019-01-06T21:48:28.496Z,3.10
2019-01-06T21:51:10.541Z,3.10
2019-01-06T21:54:14.381Z,3.10
2019-01-06T21:57:20.932Z,3.10
2019-01-06T22:00:16.587Z,3.10
2019-01-06T22:03:08.437Z,3.10
2019-01-06T22:06:13.178Z,3.10
2019-01-06T22:08:57.944Z,3.10
2019-01-06T22:11:52.988Z,3.10
2019-01-06T22:14:52.270Z,3.10
2019-01-06T22:17:39.781Z,3.10
2019-01-06T22:20:31.754Z,3.10
2019-01-06T22:23:30.117Z,3.10
2019-01-06T22:26:15.788Z,3.20
2019-01-06T22:29:02.933Z,3.20
2019-01-06T22:32:03.251Z,3.20
2019-01-06T22:34:51.565Z,3.20
2019-01-06T22:37:52.118Z,3.20
2019-01-06T22:40:45.668Z,3.20
2019-01-06T22:43:30.253Z,3.20
2019-01-06T22:46:29.430Z,3.20
2019-01-06T22:49:17.413Z,3.20
2019-01-06T22:51:58.873Z,3.20
2019-01-06T22:54:45.857Z,3.20
2019-01-06T22:57:42.056Z,3.20
2019-01-06T23:00:59.693Z,3.20
2019-01-06T23:03:47.248Z,3.20
2019-01-06T23:06:31.257Z,3.20
2019-01-06T23:09:21.977Z,3.20
2019-01-06T23:12:20.533Z,3.20
2019-01-06T23:15:11.820Z,3.20
2019-01-06T23:18:02.856Z,3.20
2019-01-06T23:20:49.780Z,3.20
2019-01-06T23:23:36.880Z,3.20
2019-01-06T23:26:19.324Z,3.10
2019-01-06T23:29:19.667Z,3.10
2019-01-06T23:32:17.044Z,3.20
2019-01-06T23:35:03.878Z,3.20
2019-01-06T23:37:43.987Z,3.20
2019-01-06T23:40:26.981Z,3.20
2019-01-06T23:43:14.117Z,3.10
2019-01-06T23:46:13.509Z,3.20
2019-01-06T23:49:02.505Z,3.10
2019-01-06T23:51:56.664Z,3.10
2019-01-06T23:54:43.850Z,3.10
2019-01-06T23:57:29.459Z,3.10
